createdAt,value
2022-08-21T00:00:13.129Z,17.81
2022-08-21T00:01:13.176Z,17.78
2022-08-21T00:02:13.264Z,17.79
2022-08-21T00:03:13.303Z,17.76
2022-08-21T00:04:14.560Z,17.74
2022-08-21T00:05:13.374Z,17.67
2022-08-21T00:06:14.042Z,17.69
2022-08-21T00:07:13.476Z,17.71
2022-08-21T00:08:13.552Z,17.66
2022-08-21T00:09:13.583Z,17.63
2022-08-21T00:10:13.649Z,17.70
2022-08-21T00:11:13.680Z,17.74
2022-08-21T00:12:13.750Z,17.73
2022-08-21T00:13:13.777Z,17.71
2022-08-21T00:14:13.827Z,17.73
2022-08-21T00:15:13.908Z,17.73
2022-08-21T00:16:13.930Z,17.78
2022-08-21T00:17:13.984Z,17.74
2022-08-21T00:18:14.029Z,17.85
2022-08-21T00:19:14.091Z,17.79
2022-08-21T00:20:14.157Z,17.89
2022-08-21T00:21:14.183Z,17.84
2022-08-21T00:22:14.338Z,17.88
2022-08-21T00:23:14.281Z,17.91
2022-08-21T00:24:14.330Z,17.87
2022-08-21T00:25:14.408Z,17.89
2022-08-21T00:26:14.432Z,17.95
2022-08-21T00:27:14.622Z,17.84
2022-08-21T00:28:14.554Z,17.87
2022-08-21T00:29:14.583Z,17.92
2022-08-21T00:30:22.748Z,17.89
2022-08-21T00:31:14.682Z,17.85
2022-08-21T00:32:14.800Z,17.99
2022-08-21T00:33:14.782Z,17.85
2022-08-21T00:34:14.832Z,17.82
2022-08-21T00:35:14.919Z,17.85
2022-08-21T00:36:14.936Z,17.89
2022-08-21T00:37:14.984Z,17.92
2022-08-21T00:38:15.034Z,17.92
2022-08-21T00:39:15.083Z,17.85
2022-08-21T00:40:15.261Z,17.89
2022-08-21T00:41:36.997Z,17.67
2022-08-21T00:42:15.237Z,17.69
2022-08-21T00:43:15.312Z,17.69
2022-08-21T00:44:15.342Z,17.66
2022-08-21T00:45:15.386Z,17.69
2022-08-21T00:46:15.443Z,17.73
2022-08-21T00:47:15.510Z,17.66
2022-08-21T00:48:15.534Z,17.71
2022-08-21T00:49:15.593Z,17.69
2022-08-21T00:50:22.046Z,17.59
2022-08-21T00:51:15.685Z,17.63
2022-08-21T00:52:15.760Z,17.64
2022-08-21T00:53:15.785Z,17.55
2022-08-21T00:54:18.658Z,17.64
2022-08-21T00:55:15.888Z,17.53
2022-08-21T00:56:15.942Z,17.59
2022-08-21T00:57:16.010Z,17.50
2022-08-21T00:58:17.376Z,17.55
2022-08-21T00:59:16.111Z,17.38
2022-08-21T01:00:16.163Z,17.43
2022-08-21T01:01:16.240Z,17.48
2022-08-21T01:02:16.236Z,17.43
2022-08-21T01:03:16.290Z,17.38
2022-08-21T01:04:16.337Z,17.35
2022-08-21T01:05:16.415Z,17.38
2022-08-21T01:06:16.437Z,17.26
2022-08-21T01:07:16.518Z,17.40
2022-08-21T01:08:16.541Z,17.23
2022-08-21T01:09:16.594Z,17.35
2022-08-21T01:10:24.436Z,17.22
2022-08-21T01:11:16.688Z,17.25
2022-08-21T01:12:16.740Z,17.28
2022-08-21T01:13:16.787Z,17.23
2022-08-21T01:14:16.846Z,17.22
2022-08-21T01:15:16.917Z,17.25
2022-08-21T01:16:16.948Z,17.26
2022-08-21T01:17:16.989Z,17.26
2022-08-21T01:18:17.041Z,17.25
2022-08-21T01:19:17.091Z,17.28
2022-08-21T01:20:17.164Z,17.28
2022-08-21T01:21:17.191Z,17.25
2022-08-21T01:22:17.241Z,17.33
2022-08-21T01:23:17.315Z,17.40
2022-08-21T01:24:17.365Z,17.36
2022-08-21T01:25:17.392Z,17.40
2022-08-21T01:26:17.442Z,17.40
2022-08-21T01:27:17.512Z,17.38
2022-08-21T01:28:17.540Z,17.25
2022-08-21T01:29:17.589Z,17.26
2022-08-21T01:30:17.640Z,17.22
2022-08-21T01:31:17.696Z,17.22
2022-08-21T01:32:17.862Z,17.26
2022-08-21T01:33:17.787Z,17.23
2022-08-21T01:34:17.838Z,17.23
2022-08-21T01:35:17.891Z,17.23
2022-08-21T01:36:17.941Z,17.22
2022-08-21T01:37:18.010Z,17.23
2022-08-21T01:38:18.038Z,17.22
2022-08-21T01:39:18.088Z,17.25
2022-08-21T01:40:18.194Z,17.22
2022-08-21T01:41:18.193Z,17.28
2022-08-21T01:42:18.272Z,17.11
2022-08-21T01:43:18.288Z,17.10
2022-08-21T01:44:18.338Z,17.11
2022-08-21T01:45:18.389Z,17.30
2022-08-21T01:46:18.446Z,17.17
2022-08-21T01:47:18.510Z,17.14
2022-08-21T01:48:18.537Z,17.23
2022-08-21T01:49:18.588Z,17.18
2022-08-21T01:50:18.638Z,17.22
2022-08-21T01:51:18.710Z,17.28
2022-08-21T01:52:18.739Z,17.22
2022-08-21T01:53:18.808Z,17.25
2022-08-21T01:54:18.836Z,17.23
2022-08-21T01:55:18.911Z,17.30
2022-08-21T01:56:18.938Z,17.20
2022-08-21T01:57:19.016Z,17.23
2022-08-21T01:58:19.038Z,17.29
2022-08-21T01:59:19.086Z,17.25
2022-08-21T02:00:19.140Z,17.30
2022-08-21T02:01:19.246Z,17.25
2022-08-21T02:02:19.262Z,17.20
2022-08-21T02:03:26.319Z,17.25
2022-08-21T02:04:19.337Z,17.33
2022-08-21T02:05:19.388Z,17.36
2022-08-21T02:06:19.459Z,17.32
2022-08-21T02:07:19.485Z,17.36
2022-08-21T02:08:19.540Z,17.32
2022-08-21T02:09:19.609Z,17.35
2022-08-21T02:10:19.638Z,17.40
2022-08-21T02:11:19.691Z,17.47
2022-08-21T02:12:19.762Z,17.47
2022-08-21T02:13:19.791Z,17.47
2022-08-21T02:14:32.761Z,17.48
2022-08-21T02:15:19.885Z,17.53
2022-08-21T02:16:19.946Z,17.59
2022-08-21T02:17:20.022Z,17.48
2022-08-21T02:18:20.057Z,17.53
2022-08-21T02:19:20.084Z,17.67
2022-08-21T02:20:20.143Z,17.53
2022-08-21T02:21:20.187Z,17.57
2022-08-21T02:22:20.265Z,17.59
2022-08-21T02:23:20.289Z,17.62
2022-08-21T02:24:20.338Z,17.57
2022-08-21T02:25:20.383Z,17.64
2022-08-21T02:26:20.440Z,17.67
2022-08-21T02:27:20.511Z,17.67
2022-08-21T02:28:20.539Z,17.64
2022-08-21T02:29:20.587Z,17.66
2022-08-21T02:30:20.635Z,17.69
2022-08-21T02:31:20.692Z,17.69
2022-08-21T02:32:20.794Z,17.63
2022-08-21T02:33:20.788Z,17.70
2022-08-21T02:34:20.860Z,17.69
2022-08-21T02:35:20.887Z,17.67
2022-08-21T02:36:20.958Z,17.67
2022-08-21T02:37:21.015Z,17.64
2022-08-21T02:38:21.039Z,17.69
2022-08-21T02:39:27.186Z,17.64
2022-08-21T02:40:21.166Z,17.67
2022-08-21T02:41:21.186Z,17.54
2022-08-21T02:42:21.278Z,17.66
2022-08-21T02:43:21.286Z,17.57
2022-08-21T02:44:21.334Z,17.54
2022-08-21T02:45:21.384Z,17.55
2022-08-21T02:46:21.433Z,17.53
2022-08-21T02:47:21.512Z,17.48
2022-08-21T02:48:21.542Z,17.50
2022-08-21T02:49:21.585Z,17.48
2022-08-21T02:50:21.631Z,17.47
2022-08-21T02:51:21.687Z,17.38
2022-08-21T02:52:21.772Z,17.46
2022-08-21T02:53:21.783Z,17.33
2022-08-21T02:54:21.832Z,17.30
2022-08-21T02:55:21.885Z,17.40
2022-08-21T02:56:21.934Z,17.35
2022-08-21T02:57:22.007Z,17.29
2022-08-21T02:58:22.032Z,17.32
2022-08-21T02:59:22.087Z,17.35
2022-08-21T03:00:22.161Z,17.20
2022-08-21T03:01:22.217Z,17.32
2022-08-21T03:02:22.252Z,17.28
2022-08-21T03:03:22.288Z,17.22
2022-08-21T03:04:22.335Z,17.26
2022-08-21T03:05:22.405Z,17.23
2022-08-21T03:06:22.434Z,17.29
2022-08-21T03:07:22.481Z,17.26
2022-08-21T03:08:22.531Z,17.18
2022-08-21T03:09:22.584Z,17.26
2022-08-21T03:10:22.655Z,17.25
2022-08-21T03:11:22.706Z,17.11
2022-08-21T03:12:22.754Z,17.20
2022-08-21T03:13:22.777Z,17.10
2022-08-21T03:14:22.831Z,17.14
2022-08-21T03:15:22.897Z,17.13
2022-08-21T03:16:22.932Z,17.13
2022-08-21T03:17:29.242Z,17.15
2022-08-21T03:18:23.055Z,17.15
2022-08-21T03:19:23.077Z,17.11
2022-08-21T03:20:23.128Z,17.13
2022-08-21T03:21:23.179Z,17.11
2022-08-21T03:22:23.233Z,17.11
2022-08-21T03:23:23.316Z,17.14
2022-08-21T03:24:23.328Z,17.13
2022-08-21T03:25:39.732Z,17.08
2022-08-21T03:26:23.427Z,17.07
2022-08-21T03:27:23.475Z,17.13
2022-08-21T03:28:23.555Z,16.99
2022-08-21T03:29:23.578Z,17.04
2022-08-21T03:30:23.629Z,17.03
2022-08-21T03:31:23.702Z,16.96
2022-08-21T03:32:23.726Z,16.96
2022-08-21T03:33:23.778Z,16.92
2022-08-21T03:34:23.843Z,16.83
2022-08-21T03:35:23.875Z,16.86
2022-08-21T03:36:23.924Z,16.95
2022-08-21T03:37:23.971Z,16.86
2022-08-21T03:38:26.685Z,16.92
2022-08-21T03:39:24.098Z,16.89
2022-08-21T03:40:24.123Z,16.86
2022-08-21T03:41:24.173Z,16.86
2022-08-21T03:42:24.222Z,16.86
2022-08-21T03:43:24.279Z,16.90
2022-08-21T03:44:24.342Z,16.89
2022-08-21T03:45:24.372Z,16.81
2022-08-21T03:46:24.444Z,16.83
2022-08-21T03:47:24.470Z,16.90
2022-08-21T03:48:24.522Z,16.80
2022-08-21T03:49:24.575Z,16.77
2022-08-21T03:50:24.625Z,16.86
2022-08-21T03:51:24.698Z,16.78
2022-08-21T03:52:24.719Z,16.77
2022-08-21T03:53:24.770Z,16.75
2022-08-21T03:54:24.817Z,16.60
2022-08-21T03:55:24.876Z,16.70
2022-08-21T03:56:24.944Z,16.58
2022-08-21T03:57:24.968Z,16.60
2022-08-21T03:58:25.020Z,16.62
2022-08-21T03:59:25.096Z,16.53
2022-08-21T04:00:25.123Z,16.65
2022-08-21T04:01:25.196Z,16.55
2022-08-21T04:02:25.218Z,16.65
2022-08-21T04:03:25.269Z,16.62
2022-08-21T04:04:25.342Z,16.60
2022-08-21T04:05:25.365Z,16.67
2022-08-21T04:06:25.416Z,16.67
2022-08-21T04:07:25.466Z,16.63
2022-08-21T04:08:25.551Z,16.62
2022-08-21T04:09:25.567Z,16.60
2022-08-21T04:10:25.614Z,16.59
2022-08-21T04:11:25.664Z,16.67
2022-08-21T04:12:25.716Z,16.70
2022-08-21T04:13:25.796Z,16.77
2022-08-21T04:14:25.813Z,16.74
2022-08-21T04:15:25.862Z,16.78
2022-08-21T04:16:25.916Z,16.74
2022-08-21T04:17:25.962Z,16.65
2022-08-21T04:18:26.035Z,16.75
2022-08-21T04:19:26.062Z,16.68
2022-08-21T04:20:26.114Z,16.75
2022-08-21T04:21:26.188Z,16.83
2022-08-21T04:22:26.210Z,16.75
2022-08-21T04:23:26.260Z,16.75
2022-08-21T04:24:26.333Z,16.77
2022-08-21T04:25:26.362Z,16.77
2022-08-21T04:26:26.408Z,16.85
2022-08-21T04:27:26.461Z,16.81
2022-08-21T04:28:29.009Z,16.85
2022-08-21T04:29:26.556Z,16.86
2022-08-21T04:30:28.301Z,16.77
2022-08-21T04:31:26.683Z,16.81
2022-08-21T04:32:26.707Z,16.83
2022-08-21T04:33:26.758Z,16.90
2022-08-21T04:34:26.807Z,16.80
2022-08-21T04:35:26.866Z,16.92
2022-08-21T04:36:26.926Z,16.85
2022-08-21T04:37:26.981Z,16.78
2022-08-21T04:38:27.076Z,16.77
2022-08-21T04:39:29.642Z,16.80
2022-08-21T04:40:27.244Z,16.86
2022-08-21T04:41:28.315Z,16.83
2022-08-21T04:42:27.209Z,16.86
2022-08-21T04:43:27.284Z,16.88
2022-08-21T04:44:27.307Z,16.78
2022-08-21T04:45:27.363Z,16.74
2022-08-21T04:46:27.408Z,16.75
2022-08-21T04:47:41.556Z,16.70
2022-08-21T04:48:27.547Z,16.63
2022-08-21T04:49:27.553Z,16.73
2022-08-21T04:50:27.608Z,16.70
2022-08-21T04:51:27.649Z,16.59
2022-08-21T04:52:27.710Z,16.71
2022-08-21T04:53:27.785Z,16.62
2022-08-21T04:54:27.801Z,16.63
2022-08-21T04:55:27.853Z,16.68
2022-08-21T04:56:27.904Z,16.65
2022-08-21T04:57:48.153Z,16.59
2022-08-21T04:58:49.026Z,16.60
2022-08-21T04:59:28.060Z,16.55
2022-08-21T05:00:28.112Z,16.59
2022-08-21T05:01:28.242Z,16.60
2022-08-21T05:02:28.226Z,16.68
2022-08-21T05:03:28.248Z,16.77
2022-08-21T05:04:28.340Z,16.80
2022-08-21T05:05:28.352Z,16.75
2022-08-21T05:06:28.397Z,16.70
2022-08-21T05:07:42.053Z,16.81
2022-08-21T05:08:28.500Z,16.80
2022-08-21T05:09:28.585Z,16.78
2022-08-21T05:10:28.601Z,16.78
2022-08-21T05:11:28.676Z,16.85
2022-08-21T05:12:28.699Z,16.80
2022-08-21T05:13:28.747Z,16.89
2022-08-21T05:14:28.798Z,16.93
2022-08-21T05:15:28.858Z,16.89
2022-08-21T05:16:37.292Z,16.92
2022-08-21T05:17:28.947Z,16.98
2022-08-21T05:18:29.056Z,16.89
2022-08-21T05:19:29.050Z,17.04
2022-08-21T05:20:29.108Z,17.11
2022-08-21T05:21:29.148Z,17.06
2022-08-21T05:22:29.193Z,17.00
2022-08-21T05:23:29.264Z,17.03
2022-08-21T05:24:29.300Z,16.99
2022-08-21T05:25:29.347Z,16.98
2022-08-21T05:26:29.422Z,16.98
2022-08-21T05:27:29.445Z,16.98
2022-08-21T05:28:29.494Z,16.92
2022-08-21T05:29:29.546Z,16.88
2022-08-21T05:30:29.598Z,16.88
2022-08-21T05:31:29.669Z,16.89
2022-08-21T05:32:29.695Z,16.90
2022-08-21T05:33:29.742Z,16.89
2022-08-21T05:34:29.792Z,16.92
2022-08-21T05:35:29.844Z,16.89
2022-08-21T05:36:29.925Z,17.00
2022-08-21T05:37:29.944Z,16.99
2022-08-21T05:38:30.018Z,17.03
2022-08-21T05:39:30.042Z,17.07
2022-08-21T05:40:30.156Z,17.04
2022-08-21T05:41:30.144Z,17.14
2022-08-21T05:42:30.193Z,17.14
2022-08-21T05:43:30.274Z,17.15
2022-08-21T05:44:30.291Z,17.15
2022-08-21T05:45:42.084Z,17.15
2022-08-21T05:46:30.412Z,17.28
2022-08-21T05:47:30.445Z,17.26
2022-08-21T05:48:30.493Z,17.22
2022-08-21T05:49:30.578Z,17.22
2022-08-21T05:50:33.520Z,17.29
2022-08-21T05:51:30.644Z,17.36
2022-08-21T05:52:30.691Z,17.40
2022-08-21T05:53:30.754Z,17.30
2022-08-21T05:54:30.819Z,17.46
2022-08-21T05:55:33.934Z,17.48
2022-08-21T05:56:30.915Z,17.55
2022-08-21T05:57:30.947Z,17.64
2022-08-21T05:58:31.017Z,17.63
2022-08-21T05:59:31.044Z,17.66
2022-08-21T06:00:31.092Z,17.70
2022-08-21T06:01:31.713Z,17.74
2022-08-21T06:02:31.194Z,17.82
2022-08-21T06:03:31.241Z,17.91
2022-08-21T06:04:31.295Z,17.95
2022-08-21T06:05:37.136Z,18.00
2022-08-21T06:06:31.426Z,17.95
2022-08-21T06:07:31.447Z,18.00
2022-08-21T06:08:31.495Z,18.02
2022-08-21T06:09:31.550Z,18.02
2022-08-21T06:10:31.594Z,18.13
2022-08-21T06:11:52.696Z,18.18
2022-08-21T06:12:31.696Z,18.22
2022-08-21T06:13:31.744Z,18.22
2022-08-21T06:14:31.798Z,18.25
2022-08-21T06:15:31.870Z,18.33
2022-08-21T06:16:31.905Z,18.31
2022-08-21T06:17:31.944Z,18.43
2022-08-21T06:18:32.017Z,18.47
2022-08-21T06:19:32.052Z,18.50
2022-08-21T06:20:32.128Z,18.62
2022-08-21T06:21:32.157Z,18.67
2022-08-21T06:22:32.202Z,18.77
2022-08-21T06:23:33.189Z,18.77
2022-08-21T06:24:32.300Z,18.83
2022-08-21T06:25:33.025Z,18.77
2022-08-21T06:26:32.398Z,18.72
2022-08-21T06:27:32.451Z,18.77
2022-08-21T06:28:32.572Z,18.79
2022-08-21T06:29:32.574Z,18.82
2022-08-21T06:30:32.609Z,18.84
2022-08-21T06:31:32.668Z,18.84
2022-08-21T06:32:32.704Z,18.91
2022-08-21T06:33:32.997Z,18.95
2022-08-21T06:34:32.845Z,19.10
2022-08-21T06:35:32.854Z,19.14
2022-08-21T06:36:32.969Z,19.11
2022-08-21T06:37:32.959Z,19.15
2022-08-21T06:38:33.015Z,19.14
2022-08-21T06:39:33.085Z,19.13
2022-08-21T06:40:34.925Z,19.15
2022-08-21T06:41:39.091Z,19.14
2022-08-21T06:42:33.212Z,19.15
2022-08-21T06:43:39.481Z,19.10
2022-08-21T06:44:33.334Z,19.08
2022-08-21T06:45:33.364Z,19.05
2022-08-21T06:46:33.426Z,19.02
2022-08-21T06:47:33.466Z,19.20
2022-08-21T06:48:33.515Z,19.21
2022-08-21T06:49:33.596Z,19.31
2022-08-21T06:50:33.617Z,19.78
2022-08-21T06:51:33.671Z,20.21
2022-08-21T06:52:33.721Z,20.84
2022-08-21T06:53:33.768Z,21.09
2022-08-21T06:54:33.844Z,21.38
2022-08-21T06:55:33.871Z,21.72
2022-08-21T06:56:33.923Z,21.75
2022-08-21T06:57:33.977Z,21.75
2022-08-21T06:58:34.029Z,22.13
2022-08-21T06:59:34.103Z,22.35
2022-08-21T07:00:34.131Z,22.72
2022-08-21T07:01:34.228Z,23.12
2022-08-21T07:02:34.231Z,23.20
2022-08-21T07:03:34.285Z,23.60
2022-08-21T07:04:34.366Z,23.67
2022-08-21T07:05:34.388Z,23.70
2022-08-21T07:06:34.437Z,23.70
2022-08-21T07:07:34.489Z,23.75
2022-08-21T07:08:34.542Z,23.85
2022-08-21T07:09:34.623Z,23.43
2022-08-21T07:10:34.650Z,23.26
2022-08-21T07:11:37.049Z,23.20
2022-08-21T07:12:34.760Z,23.42
2022-08-21T07:13:34.810Z,23.49
2022-08-21T07:14:34.887Z,23.57
2022-08-21T07:15:34.915Z,23.42
2022-08-21T07:16:35.641Z,23.70
2022-08-21T07:17:35.039Z,23.86
2022-08-21T07:21:56.982Z,24.08
2022-08-21T07:22:57.082Z,23.75
2022-08-21T07:23:57.058Z,23.64
2022-08-21T07:24:57.111Z,23.35
2022-08-21T07:26:02.162Z,23.20
2022-08-21T07:27:14.151Z,23.40
2022-08-21T07:27:57.276Z,23.70
2022-08-21T07:28:57.324Z,23.90
2022-08-21T07:29:57.374Z,23.94
2022-08-21T07:30:57.425Z,23.60
2022-08-21T07:31:57.485Z,23.83
2022-08-21T07:32:57.781Z,23.72
2022-08-21T07:33:57.613Z,23.31
2022-08-21T07:34:57.645Z,23.29
2022-08-21T07:35:57.693Z,23.45
2022-08-21T07:36:57.774Z,23.34
2022-08-21T07:37:57.803Z,23.38
2022-08-21T07:38:57.859Z,23.35
2022-08-21T07:39:57.934Z,23.57
2022-08-21T07:40:57.964Z,23.45
2022-08-21T07:41:58.050Z,23.92
2022-08-21T07:42:58.195Z,24.00
2022-08-21T07:43:58.127Z,24.23
2022-08-21T07:44:58.181Z,24.38
2022-08-21T07:45:58.246Z,24.44
2022-08-21T07:46:58.330Z,24.49
2022-08-21T07:47:58.360Z,24.61
2022-08-21T07:48:58.399Z,24.73
2022-08-21T07:49:58.457Z,25.07
2022-08-21T07:50:58.502Z,25.12
2022-08-21T07:51:58.592Z,25.10
2022-08-21T07:52:58.792Z,25.15
2022-08-21T07:53:58.708Z,25.15
2022-08-21T07:55:00.785Z,25.20
2022-08-21T07:55:58.800Z,25.15
2022-08-21T07:56:58.841Z,24.77
2022-08-21T10:21:14.741Z,25.30
2022-08-21T10:21:49.121Z,25.42
2022-08-21T10:22:47.793Z,24.83
2022-08-21T10:23:47.846Z,24.76
2022-08-21T10:24:47.963Z,24.49
2022-08-21T10:25:57.229Z,24.17
2022-08-21T10:26:48.011Z,24.82
2022-08-21T10:27:48.090Z,25.34
2022-08-21T10:28:52.700Z,25.59
2022-08-21T10:29:51.707Z,25.67
2022-08-21T10:30:50.217Z,25.35
2022-08-21T10:31:50.232Z,25.05
2022-08-21T10:32:48.341Z,24.56
2022-08-21T10:33:48.421Z,24.08
2022-08-21T10:34:48.488Z,24.14
2022-08-21T10:35:48.603Z,24.10
2022-08-21T10:36:49.231Z,24.00
2022-08-21T10:37:51.732Z,24.16
2022-08-21T10:39:12.199Z,24.07
2022-08-21T10:39:49.763Z,23.80
2022-08-21T10:58:56.620Z,27.26
2022-08-21T10:59:29.599Z,27.14
2022-08-21T11:00:29.709Z,27.31
2022-08-21T11:01:29.709Z,26.79
2022-08-21T11:02:29.803Z,26.43
2022-08-21T11:03:29.843Z,25.72
2022-08-21T11:04:29.917Z,25.39
2022-08-21T11:05:29.927Z,25.39
2022-08-21T11:06:29.989Z,25.50
2022-08-21T11:07:33.637Z,25.39
2022-08-21T11:08:30.126Z,25.25
2022-08-21T11:09:30.157Z,25.01
2022-08-21T11:10:30.255Z,24.75
2022-08-21T11:11:34.807Z,24.49
2022-08-21T11:12:30.339Z,24.32
2022-08-21T11:13:31.134Z,24.63
2022-08-21T11:14:30.459Z,24.85
2022-08-21T11:15:30.500Z,25.22
2022-08-21T11:16:30.554Z,25.35
2022-08-21T11:17:30.606Z,25.52
2022-08-21T11:18:30.667Z,25.20
2022-08-21T11:19:30.786Z,25.35
2022-08-21T11:20:30.780Z,25.35
2022-08-21T11:21:30.840Z,25.17
2022-08-21T11:22:30.893Z,25.47
2022-08-21T11:23:30.951Z,25.79
2022-08-21T11:24:31.032Z,26.20
2022-08-21T11:25:33.795Z,26.77
2022-08-21T11:26:31.121Z,27.21
2022-08-21T11:27:31.188Z,27.66
2022-08-21T11:28:31.246Z,27.84
2022-08-21T11:29:31.326Z,28.07
2022-08-21T11:30:31.409Z,28.13
2022-08-21T11:31:31.418Z,28.63
2022-08-21T11:32:31.478Z,28.10
2022-08-21T11:33:34.269Z,27.14
2022-08-21T11:34:31.627Z,27.01
2022-08-21T11:35:31.642Z,27.13
2022-08-21T11:36:31.710Z,26.95
2022-08-21T11:37:31.763Z,26.92
2022-08-21T11:38:31.824Z,27.35
2022-08-21T11:39:31.907Z,27.94
2022-08-21T11:40:31.961Z,28.43
2022-08-21T11:41:32.001Z,28.19
2022-08-21T11:42:32.097Z,28.26
2022-08-21T11:43:32.118Z,27.43
2022-08-21T11:44:32.205Z,26.84
2022-08-21T11:45:32.233Z,26.65
2022-08-21T11:46:32.296Z,26.87
2022-08-21T11:47:32.357Z,27.17
2022-08-21T11:48:32.412Z,27.39
2022-08-21T11:49:32.502Z,27.57
2022-08-21T11:50:35.691Z,27.66
2022-08-21T11:51:32.596Z,27.73
2022-08-21T11:52:32.652Z,27.53
2022-08-21T11:53:32.735Z,27.21
2022-08-21T11:54:32.773Z,26.62
2022-08-21T11:55:32.830Z,26.43
2022-08-21T11:56:32.901Z,26.62
2022-08-21T11:57:32.981Z,26.62
2022-08-21T11:58:33.017Z,27.09
2022-08-21T11:59:35.529Z,26.94
2022-08-21T12:00:33.131Z,26.98
2022-08-21T12:01:33.269Z,26.92
2022-08-21T12:02:33.279Z,26.86
2022-08-21T12:03:33.315Z,26.99
2022-08-21T12:04:33.383Z,26.98
2022-08-21T12:05:33.433Z,27.33
2022-08-21T12:06:33.518Z,27.38
2022-08-21T12:07:33.584Z,27.26
2022-08-21T12:08:33.617Z,26.87
2022-08-21T12:09:33.674Z,26.55
2022-08-21T12:10:33.764Z,26.46
2022-08-21T12:11:33.793Z,26.27
2022-08-21T12:12:33.853Z,26.08
2022-08-21T12:13:33.919Z,26.64
2022-08-21T12:14:33.977Z,27.41
2022-08-21T12:15:34.063Z,28.06
2022-08-21T12:16:34.098Z,28.07
2022-08-21T12:17:34.159Z,27.39
2022-08-21T12:18:34.217Z,27.42
2022-08-21T12:19:34.274Z,27.51
2022-08-21T12:20:34.370Z,27.43
2022-08-21T12:21:34.399Z,27.43
2022-08-21T12:22:34.461Z,27.31
2022-08-21T12:23:34.519Z,27.21
2022-08-21T12:24:34.583Z,27.09
2022-08-21T12:25:34.663Z,26.89
2022-08-21T12:26:34.724Z,26.59
2022-08-21T12:27:34.767Z,26.37
2022-08-21T12:28:34.823Z,26.31
2022-08-21T12:29:34.884Z,26.06
2022-08-21T12:30:34.951Z,26.21
2022-08-21T12:31:35.034Z,26.42
2022-08-21T12:32:35.069Z,26.54
2022-08-21T12:33:35.162Z,26.49
2022-08-21T12:34:35.192Z,26.21
2022-08-21T12:35:35.258Z,26.46
2022-08-21T12:36:38.769Z,26.99
2022-08-21T12:37:35.374Z,27.39
2022-08-21T12:38:35.434Z,27.35
2022-08-21T12:39:36.370Z,26.92
2022-08-21T12:40:35.591Z,26.68
2022-08-21T12:41:35.618Z,26.36
2022-08-21T12:42:35.676Z,26.79
2022-08-21T12:43:35.736Z,26.92
2022-08-21T12:44:35.801Z,27.19
2022-08-21T12:45:35.886Z,27.16
2022-08-21T12:46:35.943Z,27.23
2022-08-21T12:47:35.987Z,27.19
2022-08-21T12:48:36.082Z,27.16
2022-08-21T12:49:36.111Z,27.20
2022-08-21T12:50:36.172Z,27.61
2022-08-21T12:51:36.232Z,27.47
2022-08-21T12:52:39.427Z,27.50
2022-08-21T12:53:36.378Z,27.73
2022-08-21T12:54:36.417Z,28.36
2022-08-21T12:55:36.515Z,28.32
2022-08-21T12:56:36.548Z,27.47
2022-08-21T12:57:36.601Z,27.17
2022-08-21T12:58:36.664Z,27.28
2022-08-21T12:59:36.726Z,27.38
2022-08-21T13:00:36.815Z,27.19
2022-08-21T13:01:40.956Z,27.09
2022-08-21T13:02:38.871Z,27.04
2022-08-21T13:03:36.975Z,27.20
2022-08-21T13:04:37.043Z,27.20
2022-08-21T13:05:37.099Z,27.36
2022-08-21T13:06:37.164Z,27.84
2022-08-21T13:07:37.224Z,28.07
2022-08-21T13:08:40.908Z,28.09
2022-08-21T13:09:37.347Z,27.98
2022-08-21T13:10:42.365Z,28.29
2022-08-21T13:11:40.866Z,28.81
2022-08-21T13:52:36.725Z,30.93
2022-08-21T13:53:36.821Z,31.12
2022-08-21T13:54:36.818Z,30.98
2022-08-21T13:56:43.367Z,31.26
2022-08-21T13:56:50.866Z,31.35
2022-08-21T13:57:44.192Z,31.39
2022-08-21T13:58:44.261Z,31.40
2022-08-21T13:59:44.332Z,31.45
2022-08-21T14:00:44.389Z,31.45
2022-08-21T14:01:44.516Z,31.40
2022-08-21T14:02:44.522Z,31.42
2022-08-21T14:03:44.584Z,31.31
2022-08-21T14:04:44.648Z,31.04
2022-08-21T14:05:44.740Z,30.84
2022-08-21T14:06:44.808Z,31.11
2022-08-21T14:07:44.844Z,31.36
2022-08-21T14:08:44.909Z,31.50
2022-08-21T14:09:44.978Z,31.33
2022-08-21T14:10:45.044Z,31.38
2022-08-21T14:11:45.171Z,31.48
2022-08-21T14:12:45.170Z,31.79
2022-08-21T14:13:45.241Z,31.72
2022-08-21T14:14:45.304Z,31.75
2022-08-21T14:15:45.481Z,31.87
2022-08-21T14:16:45.525Z,31.35
2022-08-21T14:17:45.773Z,31.24
2022-08-21T14:19:17.431Z,31.55
2022-08-21T14:57:23.061Z,31.49
2022-08-21T14:57:56.061Z,31.46
2022-08-21T14:58:56.131Z,31.21
2022-08-21T14:59:59.965Z,31.13
2022-08-21T15:00:56.390Z,31.24
2022-08-21T15:01:56.324Z,31.26
2022-08-21T15:02:56.393Z,31.48
2022-08-21T15:03:56.454Z,31.54
2022-08-21T15:04:56.544Z,31.75
2022-08-21T15:05:56.588Z,31.92
2022-08-21T15:06:56.698Z,32.15
2022-08-21T15:07:56.744Z,32.11
2022-08-21T15:08:56.783Z,32.22
2022-08-21T15:09:56.879Z,31.91
2022-08-21T15:11:11.806Z,32.36
2022-08-21T15:11:56.982Z,32.73
2022-08-21T15:12:57.056Z,32.58
2022-08-21T15:13:57.116Z,32.64
2022-08-21T15:14:57.210Z,32.92
2022-08-21T15:15:57.244Z,32.93
2022-08-21T15:16:57.319Z,32.43
2022-08-21T15:17:57.402Z,32.13
2022-08-21T15:18:57.454Z,32.24
2022-08-21T15:19:57.537Z,32.10
2022-08-21T15:20:57.578Z,31.70
2022-08-21T15:21:57.673Z,31.53
2022-08-21T15:22:57.708Z,31.24
2022-08-21T15:23:57.779Z,31.46
2022-08-21T15:24:57.872Z,31.60
2022-08-21T15:25:57.916Z,31.76
2022-08-21T15:26:57.985Z,31.96
2022-08-21T15:27:58.041Z,32.17
2022-08-21T15:28:58.117Z,32.25
2022-08-21T15:29:58.214Z,32.32
2022-08-21T15:30:58.255Z,32.24
2022-08-21T15:31:58.314Z,31.79
2022-08-21T15:32:58.492Z,32.03
2022-08-21T15:33:58.473Z,31.48
2022-08-21T15:34:58.513Z,31.01
2022-08-21T15:35:58.583Z,31.30
2022-08-21T15:36:58.644Z,31.58
2022-08-21T15:37:58.780Z,31.39
2022-08-21T15:38:58.780Z,31.64
2022-08-21T15:39:58.940Z,31.85
2022-08-21T15:40:58.910Z,31.76
2022-08-21T15:41:58.975Z,31.58
2022-08-21T15:42:59.176Z,31.88
2022-08-21T15:43:59.104Z,32.03
2022-08-21T15:44:59.200Z,32.03
2022-08-21T15:45:59.239Z,31.70
2022-08-21T15:46:59.307Z,31.76
2022-08-21T15:48:20.413Z,31.42
2022-08-21T15:49:00.043Z,31.38
2022-08-21T15:49:59.502Z,31.70
2022-08-21T15:50:59.569Z,31.73
2022-08-21T15:51:59.639Z,31.88
2022-08-21T15:52:59.804Z,32.27
2022-08-21T15:53:59.796Z,32.10
2022-08-21T15:54:59.855Z,32.15
2022-08-21T15:55:59.899Z,32.15
2022-08-21T15:56:59.967Z,32.17
2022-08-21T15:58:04.021Z,32.51
2022-08-21T15:59:00.104Z,32.79
2022-08-21T16:00:00.189Z,32.67
2022-08-21T16:01:00.269Z,32.66
2022-08-21T16:02:00.368Z,32.58
2022-08-21T16:03:00.522Z,32.22
2022-08-21T16:04:00.430Z,32.24
2022-08-21T16:05:00.509Z,32.07
2022-08-21T16:06:00.575Z,31.65
2022-08-21T16:07:05.391Z,31.39
2022-08-21T16:08:00.734Z,31.35
2022-08-21T16:09:00.769Z,31.13
2022-08-21T16:10:00.828Z,30.68
2022-08-21T16:11:00.932Z,30.31
2022-08-21T16:12:00.963Z,29.70
2022-08-21T16:13:01.223Z,29.13
2022-08-21T16:14:01.126Z,28.43
2022-08-21T16:15:01.190Z,28.10
2022-08-21T16:16:01.230Z,27.89
2022-08-21T16:17:01.326Z,27.67
2022-08-21T16:18:01.348Z,27.54
2022-08-21T16:19:01.421Z,27.33
2022-08-21T16:20:01.521Z,27.13
2022-08-21T16:21:01.551Z,27.04
2022-08-21T16:22:01.593Z,26.79
2022-08-21T16:23:01.820Z,26.68
2022-08-21T16:24:01.724Z,26.58
2022-08-21T16:25:01.781Z,26.46
2022-08-21T16:26:01.839Z,26.29
2022-08-21T16:27:02.654Z,26.35
2022-08-21T16:28:02.017Z,26.17
2022-08-21T16:29:02.024Z,26.06
2022-08-21T16:30:02.131Z,25.98
2022-08-21T16:31:02.130Z,25.97
2022-08-21T16:32:02.195Z,25.94
2022-08-21T16:33:02.250Z,25.91
2022-08-21T16:34:02.323Z,25.86
2022-08-21T16:35:02.397Z,25.83
2022-08-21T16:36:02.427Z,25.82
2022-08-21T16:37:02.485Z,25.83
2022-08-21T16:38:02.539Z,25.83
2022-08-21T16:39:02.600Z,25.74
2022-08-21T16:40:02.753Z,25.67
2022-08-21T16:41:02.710Z,25.62
2022-08-21T16:42:02.778Z,25.64
2022-08-21T16:43:02.829Z,25.50
2022-08-21T16:44:02.930Z,25.50
2022-08-21T16:45:02.941Z,25.56
2022-08-21T16:46:02.996Z,25.56
2022-08-21T16:47:03.052Z,25.50
2022-08-21T16:48:03.114Z,25.38
2022-08-21T16:49:03.210Z,25.43
2022-08-21T16:50:03.224Z,25.38
2022-08-21T16:51:03.273Z,25.43
2022-08-21T16:52:03.327Z,25.39
2022-08-21T16:53:03.384Z,25.34
2022-08-21T16:54:03.468Z,25.39